Historique des stations

Station météo de Etrechet

Altitude de la station : 156 m







Données météorologiques pour le 17/01/2021
Date
Heure
Températures Humidité Point de rosée Vitesse
du vent
Direction Rafales Windchill Pression Pluviométrie
Cumul
Date
Heure
Températures Humidité Point de rosée Vitesse
du vent
Direction Rafales Windchill Pression Pluviométrie
Cumul
17/01/2021 13:297.8 °C81 %5.0 °C18 km/hONO34 km/h4.4 1026 hPa1.4 mm
17/01/2021 13:147.5 °C83 %5.0 °C27 km/hNO32 km/h3.3 1026 hPa1.4 mm
17/01/2021 12:597.4 °C81 %4.4 °C19 km/hONO32 km/h3.9 1026 hPa1.4 mm
17/01/2021 12:447.3 °C87 %5.6 °C23 km/hO32 km/h3.3 1026 hPa1.4 mm
17/01/2021 12:297.1 °C88 %5.0 °C26 km/hONO32 km/h2.8 1026 hPa1.4 mm
17/01/2021 12:146.8 °C89 %5.0 °C14 km/hONO32 km/h3.3 1026 hPa1.4 mm
17/01/2021 11:596.8 °C90 %5.6 °C18 km/hONO32 km/h3.3 1026 hPa1.4 mm
17/01/2021 11:446.6 °C93 %5.6 °C26 km/hONO32 km/h2.2 1026 hPa1.4 mm
17/01/2021 11:296.1 °C94 %5.0 °C21 km/hONO29 km/h2.2 1026 hPa1.4 mm
17/01/2021 11:155.8 °C95 %5.0 °C21 km/hONO29 km/h2.2 1025 hPa1.4 mm
17/01/2021 10:595.7 °C96 %5.0 °C11 km/hONO29 km/h2.8 1025 hPa1.4 mm
17/01/2021 10:435.6 °C96 %5.0 °C19 km/hO27 km/h1.7 1025 hPa1.4 mm
17/01/2021 10:295.3 °C96 %5.0 °C5 km/hO27 km/h5.0 1025 hPa1.4 mm
17/01/2021 10:155.2 °C96 %4.4 °C13 km/hONO27 km/h1.7 1025 hPa1.4 mm
17/01/2021 09:595.1 °C96 %4.4 °C16 km/hONO27 km/h1.7 1024 hPa1.4 mm
17/01/2021 09:455.1 °C96 %4.4 °C13 km/hO27 km/h1.7 1024 hPa1.4 mm
17/01/2021 09:294.9 °C96 %4.4 °C11 km/hO27 km/h2.2 1024 hPa1.2 mm
17/01/2021 09:135.0 °C96 %4.4 °C13 km/hO27 km/h1.7 1024 hPa1.2 mm
17/01/2021 08:594.9 °C96 %4.4 °C13 km/hOSO27 km/h1.7 1024 hPa1.2 mm
17/01/2021 08:434.9 °C96 %4.4 °C18 km/hONO27 km/h1.7 1023 hPa1.2 mm
17/01/2021 08:294.9 °C96 %4.4 °C11 km/hO27 km/h2.2 1023 hPa1.2 mm
17/01/2021 08:135.1 °C96 %4.4 °C6 km/hO27 km/h3.9 1023 hPa1.2 mm
17/01/2021 07:595.1 °C96 %4.4 °C6 km/hONO27 km/h3.9 1023 hPa1.2 mm
17/01/2021 07:455.1 °C96 %4.4 °C21 km/hONO27 km/h1.1 1023 hPa1.2 mm
17/01/2021 07:295.0 °C96 %4.4 °C10 km/hO27 km/h2.8 1023 hPa1.2 mm
17/01/2021 07:145.1 °C96 %4.4 °C11 km/hONO27 km/h2.2 1023 hPa1.2 mm
17/01/2021 06:595.1 °C96 %4.4 °C11 km/hONO27 km/h2.2 1022 hPa1.2 mm
17/01/2021 06:445.1 °C96 %4.4 °C18 km/hONO27 km/h1.7 1022 hPa1.2 mm
17/01/2021 06:295.1 °C96 %4.4 °C16 km/hONO24 km/h1.7 1022 hPa1.2 mm
17/01/2021 06:145.1 °C96 %4.4 °C18 km/hO24 km/h1.7 1022 hPa1.2 mm
17/01/2021 05:585.1 °C96 %4.4 °C11 km/hO21 km/h2.2 1022 hPa1.2 mm
17/01/2021 05:444.9 °C96 %4.4 °C10 km/hO21 km/h2.8 1022 hPa1.2 mm
17/01/2021 05:295.0 °C96 %4.4 °C18 km/hO21 km/h1.7 1022 hPa1.2 mm
17/01/2021 05:144.9 °C96 %4.4 °C10 km/hO21 km/h2.8 1022 hPa1.2 mm
17/01/2021 04:594.8 °C96 %4.4 °C13 km/hOSO21 km/h1.7 1022 hPa1.2 mm
17/01/2021 04:444.8 °C96 %4.4 °C10 km/hOSO21 km/h2.8 1022 hPa1.2 mm
17/01/2021 04:294.9 °C96 %4.4 °C5 km/hO21 km/h4.4 1022 hPa1.2 mm
17/01/2021 04:145.1 °C96 %4.4 °C10 km/hO21 km/h2.8 1022 hPa1.2 mm
17/01/2021 03:595.3 °C96 %5.0 °C6 km/hO21 km/h4.4 1021 hPa1.2 mm
17/01/2021 03:445.4 °C96 %5.0 °C10 km/hO21 km/h3.3 1021 hPa1.2 mm
17/01/2021 03:295.6 °C96 %5.0 °C13 km/hO21 km/h2.8 1021 hPa1.2 mm
17/01/2021 03:145.7 °C96 %5.0 °C6 km/hO21 km/h4.4 1022 hPa1.2 mm
17/01/2021 02:595.8 °C96 %5.6 °C6 km/hONO21 km/h5.0 1022 hPa1.2 mm
17/01/2021 02:445.9 °C96 %5.6 °C5 km/hO21 km/h5.6 1021 hPa1.2 mm
17/01/2021 02:295.9 °C96 %5.6 °C6 km/hO21 km/h5.0 1021 hPa1.2 mm
17/01/2021 02:145.9 °C96 %5.6 °C10 km/hO21 km/h3.9 1021 hPa1.2 mm
17/01/2021 01:596.1 °C96 %5.6 °C13 km/hO21 km/h3.3 1021 hPa1.2 mm
17/01/2021 01:446.2 °C96 %5.6 °C11 km/hO21 km/h3.3 1021 hPa1 mm
17/01/2021 01:296.2 °C96 %5.6 °C13 km/hO21 km/h3.3 1021 hPa1 mm
17/01/2021 01:146.2 °C96 %5.6 °C5 km/hO21 km/h5.6 1021 hPa1 mm
17/01/2021 00:596.2 °C96 %5.6 °C3 km/hO21 km/h5.6 1021 hPa0.8 mm
17/01/2021 00:446.2 °C96 %5.6 °C5 km/hO21 km/h5.6 1021 hPa0.8 mm
17/01/2021 00:296.2 °C96 %5.6 °C5 km/hO21 km/h5.6 1021 hPa0.8 mm
17/01/2021 00:146.2 °C96 %5.6 °C6 km/hO21 km/h5.0 1021 hPa0.6 mm


Minima :

Température : 4.8 °C
Humidité : 81 %
Point de rosée : 4.4 °C
Vent moyen : 3 km/h
Windchill : 1.1
Pression atm. : 1021 hPa
Maxima :

Température : 7.8 °C
Humidité : 96 %
Point de rosée : 5.6 °C
Vent moyen : 27 km/h
Windchill : 5.6
Pression atm. : 1026 hPa
Rafales max : 34 km/h
Cumul de pluie sur 24H : 1.4 mm

Etrechet est une commune du département Indre (36).
La station météorologique du réseau de l'association la plus proche de Etrechet est celle de Saint-Maur



Icône Facebook Association Météo Centre Icône Twitter Association Météo Centre Icône Chaîne Youtube Association Météo Centre Icône contact Association Météo Centre Icône Insta Association Météo Centre